createdAt,value
2018-03-30T00:00:09.081Z,65.17
2018-03-30T00:02:36.675Z,65.06
2018-03-30T00:05:04.337Z,65.16
2018-03-30T00:07:31.931Z,64.57
2018-03-30T00:09:59.534Z,64.87
2018-03-30T00:12:27.171Z,65.19
2018-03-30T00:14:54.758Z,65.63
2018-03-30T00:17:22.340Z,65.87
2018-03-30T00:19:49.995Z,65.36
2018-03-30T00:22:17.654Z,66.34
2018-03-30T00:24:45.299Z,67.26
2018-03-30T00:27:12.897Z,66.94
2018-03-30T00:29:40.490Z,66.43
2018-03-30T00:32:08.080Z,66.25
2018-03-30T00:34:35.666Z,66.46
2018-03-30T00:37:03.295Z,66.85
2018-03-30T00:39:30.883Z,67.38
2018-03-30T00:41:58.468Z,67.24
2018-03-30T00:44:26.060Z,67.13
2018-03-30T00:46:53.731Z,68.35
2018-03-30T00:49:21.330Z,68.29
2018-03-30T00:51:48.931Z,68.33
2018-03-30T00:54:16.552Z,68.87
2018-03-30T00:56:44.135Z,68.41
2018-03-30T00:59:11.728Z,68.13
2018-03-30T01:01:39.408Z,69.10
2018-03-30T01:04:07.024Z,68.58
2018-03-30T01:06:34.739Z,68.91
2018-03-30T01:09:02.327Z,69.37
2018-03-30T01:11:29.915Z,69.76
2018-03-30T01:13:57.514Z,69.29
2018-03-30T01:16:25.097Z,69.37
2018-03-30T01:18:52.698Z,68.90
2018-03-30T01:21:20.296Z,69.55
2018-03-30T01:23:47.914Z,70.00
2018-03-30T01:26:15.591Z,69.59
2018-03-30T01:28:43.232Z,70.56
2018-03-30T01:31:10.899Z,70.77
2018-03-30T01:33:38.479Z,71.50
2018-03-30T01:36:06.111Z,71.11
2018-03-30T01:38:33.696Z,71.50
2018-03-30T01:41:01.301Z,72.40
2018-03-30T01:43:28.939Z,72.89
2018-03-30T01:45:56.551Z,73.81
2018-03-30T01:48:24.126Z,73.63
2018-03-30T01:50:51.720Z,72.49
2018-03-30T01:53:19.352Z,73.18
2018-03-30T01:55:47.028Z,73.22
2018-03-30T01:58:14.668Z,74.45
2018-03-30T02:00:42.267Z,74.09
2018-03-30T02:03:09.854Z,73.84
2018-03-30T02:05:37.490Z,74.10
2018-03-30T02:08:05.114Z,74.93
2018-03-30T02:10:32.714Z,74.26
2018-03-30T02:13:00.306Z,74.70
2018-03-30T02:15:27.934Z,74.31
2018-03-30T02:17:55.520Z,74.61
2018-03-30T02:20:23.106Z,75.06
2018-03-30T02:22:50.726Z,75.72
2018-03-30T02:25:18.344Z,75.69
2018-03-30T02:27:45.954Z,75.59
2018-03-30T02:30:13.585Z,75.13
2018-03-30T02:32:41.233Z,75.64
2018-03-30T02:35:08.857Z,77.03
2018-03-30T02:37:36.459Z,76.58
2018-03-30T02:40:04.096Z,76.51
2018-03-30T02:42:31.726Z,75.83
2018-03-30T02:44:59.330Z,75.61
2018-03-30T02:47:26.923Z,75.41
2018-03-30T02:49:54.555Z,75.60
2018-03-30T02:52:22.192Z,76.56
2018-03-30T02:54:49.832Z,77.22
2018-03-30T02:57:17.464Z,76.79
2018-03-30T02:59:45.099Z,75.74
2018-03-30T03:02:12.713Z,74.56
2018-03-30T03:04:40.303Z,74.69
2018-03-30T03:07:07.886Z,74.81
2018-03-30T03:09:35.511Z,75.59
2018-03-30T03:12:03.131Z,76.43
2018-03-30T03:14:30.731Z,76.32
2018-03-30T03:16:58.331Z,76.12
2018-03-30T03:19:25.923Z,76.00
2018-03-30T03:21:53.510Z,76.06
2018-03-30T03:24:21.115Z,75.73
2018-03-30T03:26:48.725Z,74.97
2018-03-30T03:29:16.319Z,76.11
2018-03-30T03:31:44.006Z,75.40
2018-03-30T03:34:11.607Z,76.02
2018-03-30T03:36:39.201Z,76.66
2018-03-30T03:39:06.787Z,76.99
2018-03-30T03:41:34.380Z,76.37
2018-03-30T03:44:02.054Z,76.48
2018-03-30T03:46:29.699Z,77.10
2018-03-30T03:48:57.323Z,76.73
2018-03-30T03:51:24.962Z,76.48
2018-03-30T03:53:52.548Z,76.46
2018-03-30T03:56:20.135Z,76.63
2018-03-30T03:58:47.726Z,76.55
2018-03-30T04:01:15.360Z,76.84
2018-03-30T04:03:42.963Z,76.60
2018-03-30T04:06:10.552Z,76.71
2018-03-30T04:08:38.175Z,76.52
2018-03-30T04:11:05.803Z,76.27
2018-03-30T04:13:33.395Z,75.94
2018-03-30T04:16:01.079Z,76.85
2018-03-30T04:18:28.666Z,77.42
2018-03-30T04:20:56.263Z,77.60
2018-03-30T04:23:23.858Z,78.33
2018-03-30T04:25:51.547Z,77.72
2018-03-30T04:28:19.166Z,77.97
2018-03-30T04:30:46.754Z,77.47
2018-03-30T04:33:14.465Z,77.67
2018-03-30T04:35:42.065Z,77.53
2018-03-30T04:38:09.666Z,76.59
2018-03-30T04:40:37.302Z,76.52
2018-03-30T04:43:04.921Z,75.69
2018-03-30T04:45:32.602Z,75.25
2018-03-30T04:48:00.187Z,75.68
2018-03-30T04:50:27.800Z,75.15
2018-03-30T04:52:55.402Z,75.24
2018-03-30T04:55:23.023Z,74.84
2018-03-30T04:57:50.624Z,74.62
2018-03-30T05:00:18.222Z,75.08
2018-03-30T05:02:45.850Z,74.98
2018-03-30T05:05:13.436Z,74.11
2018-03-30T05:07:41.067Z,73.54
2018-03-30T05:10:08.675Z,73.16
2018-03-30T05:12:36.303Z,72.69
2018-03-30T05:15:04.075Z,71.72
2018-03-30T05:17:31.679Z,71.63
2018-03-30T05:19:59.372Z,70.87
2018-03-30T05:22:27.003Z,71.03
2018-03-30T05:24:54.622Z,68.50
2018-03-30T05:27:22.253Z,66.95
2018-03-30T05:29:49.870Z,66.42
2018-03-30T05:32:17.499Z,64.79
2018-03-30T05:34:45.262Z,64.28
2018-03-30T05:37:12.988Z,63.45
2018-03-30T05:39:40.709Z,61.70
2018-03-30T05:42:08.339Z,59.35
2018-03-30T05:44:35.969Z,57.36
2018-03-30T05:47:03.585Z,57.37
2018-03-30T05:49:31.186Z,57.28
2018-03-30T05:51:58.831Z,54.54
2018-03-30T05:54:26.469Z,56.48
2018-03-30T05:56:54.063Z,55.14
2018-03-30T05:59:21.695Z,55.73
2018-03-30T06:01:49.287Z,56.50
2018-03-30T06:04:16.918Z,54.39
2018-03-30T06:06:44.679Z,55.08
2018-03-30T06:09:12.374Z,57.76
2018-03-30T06:11:40.000Z,56.64
2018-03-30T06:14:07.640Z,58.06
2018-03-30T06:16:35.230Z,58.91
2018-03-30T06:19:02.846Z,58.52
2018-03-30T06:21:30.546Z,58.05
2018-03-30T06:23:58.188Z,57.99
2018-03-30T06:26:25.796Z,57.25
2018-03-30T06:28:53.403Z,58.80
2018-03-30T06:31:21.048Z,58.97
2018-03-30T06:33:48.642Z,57.70
2018-03-30T06:36:16.238Z,57.56
2018-03-30T06:38:43.855Z,57.58
2018-03-30T06:41:12.039Z,58.42
2018-03-30T06:43:39.640Z,59.16
2018-03-30T06:46:07.240Z,58.40
2018-03-30T06:48:34.853Z,57.40
2018-03-30T06:51:02.468Z,55.54
2018-03-30T06:53:30.122Z,54.68
2018-03-30T06:55:57.722Z,57.95
2018-03-30T06:58:25.335Z,56.12
2018-03-30T07:00:52.970Z,56.02
2018-03-30T07:03:20.603Z,55.48
2018-03-30T07:05:48.198Z,53.05
2018-03-30T07:08:15.812Z,52.58
2018-03-30T07:10:43.458Z,52.90
2018-03-30T07:13:11.128Z,53.08
2018-03-30T07:15:38.767Z,52.92
2018-03-30T07:18:06.377Z,52.81
2018-03-30T07:20:33.992Z,51.39
2018-03-30T07:23:01.627Z,55.19
2018-03-30T07:25:29.283Z,53.16
2018-03-30T07:27:56.890Z,54.27
2018-03-30T07:30:24.484Z,54.59
2018-03-30T07:32:52.199Z,53.58
2018-03-30T07:35:19.821Z,52.13
2018-03-30T07:37:47.415Z,48.29
2018-03-30T07:40:15.022Z,49.04
2018-03-30T07:42:42.655Z,48.99
2018-03-30T07:45:10.257Z,49.33
2018-03-30T07:47:37.941Z,48.32
2018-03-30T07:50:05.567Z,45.87
2018-03-30T07:52:33.196Z,48.37
2018-03-30T07:55:00.791Z,46.14
2018-03-30T07:57:28.396Z,46.65
2018-03-30T07:59:56.031Z,44.62
2018-03-30T08:02:23.619Z,44.81
2018-03-30T08:04:51.223Z,45.20
2018-03-30T08:07:18.859Z,44.87
2018-03-30T08:09:46.502Z,43.28
2018-03-30T08:12:14.216Z,43.53
2018-03-30T08:14:41.839Z,44.70
2018-03-30T08:17:09.437Z,42.64
2018-03-30T08:19:37.040Z,42.62
2018-03-30T08:22:04.734Z,42.39
2018-03-30T08:24:32.339Z,43.95
2018-03-30T08:26:59.931Z,43.71
2018-03-30T08:29:27.563Z,42.60
2018-03-30T08:31:55.158Z,38.09
2018-03-30T08:34:22.772Z,38.86
2018-03-30T08:36:50.382Z,38.01
2018-03-30T08:39:17.971Z,38.63
2018-03-30T08:41:45.583Z,38.56
2018-03-30T08:44:13.179Z,38.27
2018-03-30T08:46:40.852Z,37.18
2018-03-30T08:49:08.452Z,38.03
2018-03-30T08:51:36.067Z,38.09
2018-03-30T08:54:03.671Z,36.84
2018-03-30T08:56:31.330Z,36.91
2018-03-30T08:58:58.930Z,38.16
2018-03-30T09:01:26.548Z,39.25
2018-03-30T09:03:54.171Z,37.17
2018-03-30T09:06:21.775Z,35.20
2018-03-30T09:08:49.419Z,35.59
2018-03-30T09:11:17.009Z,35.25
2018-03-30T09:13:44.623Z,32.07
2018-03-30T09:16:12.223Z,33.60
2018-03-30T09:18:39.828Z,30.74
2018-03-30T09:21:07.436Z,30.72
2018-03-30T09:23:35.031Z,31.21
2018-03-30T09:26:02.738Z,31.77
2018-03-30T09:28:30.435Z,32.77
2018-03-30T09:30:58.055Z,32.71
2018-03-30T09:33:28.328Z,31.87
2018-03-30T09:35:55.924Z,31.03
2018-03-30T09:38:23.529Z,31.27
2018-03-30T09:40:51.139Z,31.49
2018-03-30T09:43:18.776Z,29.69
2018-03-30T09:45:46.375Z,29.86
2018-03-30T09:48:13.964Z,28.43
2018-03-30T09:50:41.570Z,29.63
2018-03-30T09:53:09.170Z,27.21
2018-03-30T09:55:36.852Z,27.19
2018-03-30T09:58:04.456Z,28.78
2018-03-30T10:00:32.047Z,27.97
2018-03-30T10:03:04.569Z,28.83
2018-03-30T10:05:32.177Z,29.42
2018-03-30T10:07:59.775Z,26.35
2018-03-30T10:10:27.402Z,26.59
2018-03-30T10:12:55.011Z,28.19
2018-03-30T10:15:22.610Z,29.42
2018-03-30T10:17:50.240Z,29.38
2018-03-30T10:20:17.850Z,29.31
2018-03-30T10:22:45.451Z,27.37
2018-03-30T10:25:13.097Z,28.39
2018-03-30T10:27:40.745Z,28.17
2018-03-30T10:30:08.339Z,27.46
2018-03-30T10:32:35.947Z,27.97
2018-03-30T10:35:03.536Z,29.07
2018-03-30T10:37:31.135Z,27.37
2018-03-30T10:39:58.758Z,25.90
2018-03-30T10:42:26.355Z,26.65
2018-03-30T10:44:54.018Z,24.83
2018-03-30T10:47:21.671Z,25.98
2018-03-30T10:49:49.259Z,27.44
2018-03-30T10:52:16.898Z,27.29
2018-03-30T10:54:44.540Z,25.01
2018-03-30T10:57:12.142Z,24.82
2018-03-30T10:59:39.752Z,24.38
2018-03-30T11:02:07.350Z,26.16
2018-03-30T11:04:34.973Z,27.60
2018-03-30T11:07:02.604Z,27.53
2018-03-30T11:09:30.195Z,28.21
2018-03-30T11:11:57.838Z,28.66
2018-03-30T11:14:25.543Z,26.80
2018-03-30T11:16:53.143Z,27.67
2018-03-30T11:19:20.779Z,28.22
2018-03-30T11:21:48.370Z,28.17
2018-03-30T11:24:15.967Z,26.89
2018-03-30T11:26:43.583Z,28.25
2018-03-30T11:29:11.213Z,26.68
2018-03-30T11:31:38.828Z,26.93
2018-03-30T11:34:06.411Z,26.38
2018-03-30T11:36:34.083Z,27.44
2018-03-30T11:39:01.674Z,26.32
2018-03-30T11:41:29.306Z,25.43
2018-03-30T11:43:57.038Z,25.32
2018-03-30T11:46:24.728Z,26.31
2018-03-30T11:48:52.332Z,24.99
2018-03-30T11:51:19.927Z,26.14
2018-03-30T11:53:47.555Z,25.57
2018-03-30T11:56:15.171Z,26.76
2018-03-30T11:58:43.667Z,26.01
2018-03-30T12:03:38.199Z,27.16
2018-03-30T12:06:05.790Z,25.76
2018-03-30T12:08:33.392Z,25.26
2018-03-30T12:11:00.991Z,25.98
2018-03-30T12:13:28.580Z,25.88
2018-03-30T12:15:56.182Z,26.77
2018-03-30T12:18:23.796Z,27.23
2018-03-30T12:20:51.391Z,27.73
2018-03-30T12:23:19.026Z,27.24
2018-03-30T12:25:46.687Z,27.18
2018-03-30T12:28:14.275Z,26.07
2018-03-30T12:30:41.889Z,27.69
2018-03-30T12:33:09.516Z,27.04
2018-03-30T12:35:37.170Z,27.67
2018-03-30T12:38:04.794Z,26.52
2018-03-30T12:40:32.415Z,25.78
2018-03-30T12:43:00.004Z,26.14
2018-03-30T12:45:27.598Z,27.71
2018-03-30T12:47:55.283Z,26.52
2018-03-30T12:50:22.896Z,27.00
2018-03-30T12:52:50.489Z,26.79
2018-03-30T12:55:18.987Z,27.87
2018-03-30T12:57:46.587Z,28.46
2018-03-30T13:00:14.179Z,27.71
2018-03-30T13:02:41.831Z,27.13
2018-03-30T13:05:09.470Z,27.34
2018-03-30T13:07:37.064Z,28.91
2018-03-30T13:10:04.690Z,28.87
2018-03-30T13:12:32.278Z,29.33
2018-03-30T13:14:59.863Z,29.33
2018-03-30T13:17:27.478Z,29.65
2018-03-30T13:19:55.062Z,29.76
2018-03-30T13:22:22.654Z,29.57
2018-03-30T13:24:50.267Z,28.58
2018-03-30T13:27:17.894Z,29.56
2018-03-30T13:29:45.499Z,29.64
2018-03-30T13:32:13.111Z,30.52
2018-03-30T13:34:40.807Z,30.53
2018-03-30T13:37:08.434Z,29.85
2018-03-30T13:39:36.027Z,29.76
2018-03-30T13:42:03.639Z,30.58
2018-03-30T13:44:31.232Z,31.85
2018-03-30T13:46:58.859Z,32.19
2018-03-30T13:49:26.476Z,32.33
2018-03-30T13:51:57.956Z,32.46
2018-03-30T13:54:27.246Z,31.01
2018-03-30T13:57:00.436Z,32.00
2018-03-30T13:59:28.875Z,32.25
2018-03-30T14:02:01.109Z,34.34
2018-03-30T14:04:44.502Z,34.86
2018-03-30T14:07:13.872Z,35.94
2018-03-30T14:09:42.223Z,36.23
2018-03-30T14:12:12.471Z,36.09
2018-03-30T14:14:40.070Z,36.90
2018-03-30T14:17:21.323Z,37.35
2018-03-30T14:19:50.461Z,36.66
2018-03-30T14:25:20.423Z,35.94
2018-03-30T14:27:59.585Z,36.76
2018-03-30T14:30:27.174Z,35.34
2018-03-30T14:33:07.403Z,35.53
2018-03-30T14:38:34.726Z,35.32
2018-03-30T14:41:02.347Z,34.88
2018-03-30T14:43:33.582Z,35.17
2018-03-30T14:48:59.375Z,35.01
2018-03-30T14:51:33.750Z,35.75
2018-03-30T14:54:07.026Z,35.19
2018-03-30T14:56:38.483Z,34.56
2018-03-30T14:59:09.885Z,34.48
2018-03-30T15:01:43.357Z,34.76
2018-03-30T15:04:22.774Z,34.40
2018-03-30T15:06:56.247Z,34.74
2018-03-30T15:09:26.374Z,34.04
2018-03-30T15:12:01.649Z,34.05
2018-03-30T15:14:29.960Z,33.45
2018-03-30T15:17:01.343Z,33.55
2018-03-30T15:19:49.615Z,35.61
2018-03-30T15:22:20.953Z,36.22
2018-03-30T15:24:57.071Z,36.48
2018-03-30T15:27:27.342Z,36.75
2018-03-30T15:29:57.816Z,38.00
2018-03-30T15:32:51.762Z,38.40
2018-03-30T15:35:19.479Z,39.09
2018-03-30T15:37:47.104Z,39.75
2018-03-30T15:40:17.411Z,39.79
2018-03-30T15:42:50.753Z,40.01
2018-03-30T15:45:21.886Z,40.46
2018-03-30T15:47:49.556Z,40.57
2018-03-30T15:50:17.228Z,40.83
2018-03-30T15:52:44.927Z,41.11
2018-03-30T15:55:12.550Z,41.32
2018-03-30T15:57:40.227Z,41.63
2018-03-30T16:00:07.864Z,41.76
2018-03-30T16:02:35.492Z,42.83
2018-03-30T16:05:03.243Z,42.62
2018-03-30T16:07:30.878Z,42.62
2018-03-30T16:10:13.105Z,43.03
2018-03-30T16:12:40.767Z,43.25
2018-03-30T16:15:08.404Z,43.86
2018-03-30T16:17:36.221Z,43.68
2018-03-30T16:20:03.304Z,43.80
2018-03-30T16:22:30.429Z,44.11
2018-03-30T16:24:57.523Z,44.08
2018-03-30T16:27:24.578Z,44.44
2018-03-30T16:29:51.631Z,45.15
2018-03-30T16:32:18.754Z,45.64
2018-03-30T16:34:45.813Z,45.44
2018-03-30T16:37:12.915Z,45.88
2018-03-30T16:39:40.249Z,46.43
2018-03-30T16:42:07.311Z,46.41
2018-03-30T16:44:34.382Z,46.66
2018-03-30T16:47:01.476Z,47.04
2018-03-30T16:49:28.526Z,47.15
2018-03-30T16:51:55.635Z,47.77
2018-03-30T16:54:22.679Z,48.30
2018-03-30T16:56:49.739Z,48.56
2018-03-30T16:59:16.815Z,48.44
2018-03-30T17:01:43.885Z,48.38
2018-03-30T17:04:11.026Z,48.63
2018-03-30T17:06:38.080Z,48.54
2018-03-30T17:09:05.190Z,48.66
2018-03-30T17:11:32.246Z,49.18
2018-03-30T17:13:59.298Z,48.97
2018-03-30T17:16:26.383Z,49.21
2018-03-30T17:18:53.442Z,49.59
2018-03-30T17:21:20.504Z,49.84
2018-03-30T17:23:47.564Z,49.94
2018-03-30T17:26:15.542Z,50.19
2018-03-30T17:28:42.627Z,50.33
2018-03-30T17:31:09.674Z,50.41
2018-03-30T17:33:36.799Z,50.57
2018-03-30T17:36:03.943Z,51.06
2018-03-30T17:38:30.991Z,51.16
2018-03-30T17:40:58.048Z,51.37
2018-03-30T17:43:25.151Z,51.87
2018-03-30T17:45:52.224Z,52.51
2018-03-30T17:48:19.283Z,52.32
2018-03-30T17:50:46.412Z,53.29
2018-03-30T17:53:13.491Z,53.03
2018-03-30T17:55:40.547Z,53.29
2018-03-30T17:58:07.643Z,53.95
2018-03-30T18:00:34.734Z,53.59
2018-03-30T18:03:01.790Z,54.06
2018-03-30T18:05:28.842Z,54.29
2018-03-30T18:07:55.894Z,55.47
2018-03-30T18:10:23.008Z,55.80
2018-03-30T18:12:50.186Z,55.84
2018-03-30T18:15:17.290Z,56.28
2018-03-30T18:17:44.496Z,56.27
2018-03-30T18:20:11.627Z,57.13
2018-03-30T18:22:39.703Z,57.25
2018-03-30T18:25:06.802Z,57.68
2018-03-30T18:27:33.892Z,57.77
2018-03-30T18:30:00.986Z,58.85
2018-03-30T18:32:28.039Z,58.52
2018-03-30T18:34:55.103Z,58.51
2018-03-30T18:37:22.276Z,58.38
2018-03-30T18:39:49.359Z,59.69
2018-03-30T18:42:16.435Z,60.15
2018-03-30T18:44:43.552Z,60.87
2018-03-30T18:47:10.707Z,60.93
2018-03-30T18:49:37.819Z,61.12
2018-03-30T18:52:04.925Z,60.99
2018-03-30T18:54:32.046Z,61.07
2018-03-30T18:56:59.191Z,61.79
2018-03-30T18:59:26.243Z,61.99
2018-03-30T19:01:53.299Z,62.57
2018-03-30T19:04:20.399Z,63.50
2018-03-30T19:06:47.528Z,64.01
2018-03-30T19:09:14.662Z,63.92
2018-03-30T19:11:41.753Z,63.72
2018-03-30T19:14:08.822Z,63.40
2018-03-30T19:16:35.939Z,63.80
2018-03-30T19:19:03.018Z,63.77
2018-03-30T19:21:30.074Z,63.88
2018-03-30T19:23:57.168Z,64.33
2018-03-30T19:26:24.294Z,64.29
2018-03-30T19:28:51.346Z,64.49
2018-03-30T19:31:18.443Z,64.23
2018-03-30T19:33:45.491Z,65.26
2018-03-30T19:36:12.547Z,65.41
2018-03-30T19:38:39.661Z,65.42
2018-03-30T19:41:06.798Z,65.61
2018-03-30T19:43:33.838Z,65.97
2018-03-30T19:46:00.959Z,65.56
2018-03-30T19:48:28.015Z,65.67
2018-03-30T19:50:55.061Z,65.79
2018-03-30T19:53:22.146Z,66.34
2018-03-30T19:55:49.203Z,66.11
2018-03-30T19:58:16.363Z,66.31
2018-03-30T20:00:43.452Z,66.85
2018-03-30T20:03:10.500Z,66.74
2018-03-30T20:05:37.584Z,67.36
2018-03-30T20:08:04.672Z,67.12
2018-03-30T20:10:31.726Z,67.37
2018-03-30T20:12:58.783Z,67.47
2018-03-30T20:15:25.946Z,67.28
2018-03-30T20:17:53.022Z,67.29
2018-03-30T20:20:20.109Z,67.07
2018-03-30T20:22:47.167Z,67.13
2018-03-30T20:25:14.238Z,67.21
2018-03-30T20:27:41.323Z,66.93
2018-03-30T20:30:08.418Z,67.22
2018-03-30T20:32:35.469Z,66.57
2018-03-30T20:35:02.532Z,66.42
2018-03-30T20:37:29.619Z,66.49
2018-03-30T20:39:56.674Z,66.22
2018-03-30T20:42:23.731Z,66.63
2018-03-30T20:44:50.850Z,65.99
2018-03-30T20:47:17.960Z,65.94
2018-03-30T20:49:45.027Z,65.27
2018-03-30T20:52:12.074Z,65.92
2018-03-30T20:54:39.133Z,65.11
2018-03-30T20:57:06.186Z,65.25
2018-03-30T20:59:33.276Z,65.40
2018-03-30T21:02:00.324Z,65.98
2018-03-30T21:04:27.386Z,66.50
2018-03-30T21:06:54.471Z,66.51
2018-03-30T21:09:21.542Z,66.36
2018-03-30T21:11:48.630Z,66.77
2018-03-30T21:14:15.680Z,66.66
2018-03-30T21:16:42.754Z,67.11
2018-03-30T21:19:09.843Z,66.99
2018-03-30T21:21:36.898Z,67.41
2018-03-30T21:24:03.946Z,66.76
2018-03-30T21:26:31.009Z,67.46
2018-03-30T21:28:58.101Z,67.10
2018-03-30T21:31:25.227Z,66.44
2018-03-30T21:33:52.300Z,66.43
2018-03-30T21:36:19.350Z,65.99
2018-03-30T21:38:46.411Z,66.91
2018-03-30T21:41:13.479Z,67.32
2018-03-30T21:43:40.571Z,67.32
2018-03-30T21:46:07.646Z,67.15
2018-03-30T21:48:34.714Z,67.14
2018-03-30T21:51:01.887Z,67.32
2018-03-30T21:53:28.944Z,66.95
2018-03-30T21:55:56.060Z,67.10
2018-03-30T21:58:23.142Z,66.47
2018-03-30T22:00:50.222Z,66.36
2018-03-30T22:03:17.268Z,66.63
2018-03-30T22:05:44.402Z,67.62
2018-03-30T22:08:11.442Z,67.35
2018-03-30T22:10:38.495Z,67.61
2018-03-30T22:13:05.607Z,68.15
2018-03-30T22:15:32.655Z,67.82
2018-03-30T22:17:59.701Z,67.66
2018-03-30T22:20:26.785Z,67.28
2018-03-30T22:22:53.831Z,67.58
2018-03-30T22:25:20.893Z,67.57
2018-03-30T22:27:47.959Z,66.78
2018-03-30T22:30:15.015Z,67.38
2018-03-30T22:32:42.106Z,67.28
2018-03-30T22:35:09.198Z,67.47
2018-03-30T22:37:36.242Z,68.46
2018-03-30T22:40:03.378Z,68.15
2018-03-30T22:42:30.438Z,68.47
2018-03-30T22:44:57.523Z,69.27
2018-03-30T22:47:24.622Z,68.60
2018-03-30T22:49:51.670Z,68.91
2018-03-30T22:52:18.722Z,68.28
2018-03-30T22:54:45.770Z,68.48
2018-03-30T22:57:12.830Z,68.81
2018-03-30T22:59:39.919Z,68.78
2018-03-30T23:02:06.970Z,68.89
2018-03-30T23:04:34.022Z,68.17
2018-03-30T23:07:01.107Z,68.55
2018-03-30T23:09:28.177Z,68.45
2018-03-30T23:11:55.234Z,67.83
2018-03-30T23:14:22.314Z,68.15
2018-03-30T23:16:49.358Z,68.39
2018-03-30T23:19:16.420Z,68.42
2018-03-30T23:21:43.474Z,68.33
2018-03-30T23:24:10.554Z,68.50
2018-03-30T23:26:37.602Z,68.59
2018-03-30T23:29:04.659Z,68.67
2018-03-30T23:31:31.818Z,68.95
2018-03-30T23:33:58.958Z,69.09
2018-03-30T23:36:26.039Z,68.77
2018-03-30T23:38:53.128Z,68.71
2018-03-30T23:41:20.182Z,68.80
2018-03-30T23:43:47.283Z,68.75
2018-03-30T23:46:14.346Z,68.71
2018-03-30T23:48:41.394Z,68.58
2018-03-30T23:51:08.526Z,69.18
2018-03-30T23:53:35.584Z,68.18
2018-03-30T23:56:02.662Z,68.08
2018-03-30T23:58:29.722Z,68.37
